sensor_id;sensor_type;location;lat;lon;timestamp;pressure;altitude;pressure_sealevel;temperature;humidity
42111;BME280;27766;52.174;5.456;2023-02-24T00:02:03;101538.41;;;2.21;100.00
42111;BME280;27766;52.174;5.456;2023-02-24T00:04:34;101538.41;;;2.21;100.00
42111;BME280;27766;52.174;5.456;2023-02-24T00:07:02;101535.94;;;2.23;100.00
42111;BME280;27766;52.174;5.456;2023-02-24T00:09:30;101535.66;;;2.32;100.00
42111;BME280;27766;52.174;5.456;2023-02-24T00:12:06;101527.50;;;2.37;100.00
42111;BME280;27766;52.174;5.456;2023-02-24T00:14:37;101522.97;;;2.33;100.00
42111;BME280;27766;52.174;5.456;2023-02-24T00:17:05;101527.75;;;2.42;100.00
42111;BME280;27766;52.174;5.456;2023-02-24T00:19:36;101525.91;;;2.40;100.00
42111;BME280;27766;52.174;5.456;2023-02-24T00:22:06;101520.69;;;2.38;100.00
42111;BME280;27766;52.174;5.456;2023-02-24T00:24:34;101519.50;;;2.46;100.00
42111;BME280;27766;52.174;5.456;2023-02-24T00:27:03;101499.16;;;2.48;100.00
42111;BME280;27766;52.174;5.456;2023-02-24T00:29:34;101499.44;;;2.52;100.00
42111;BME280;27766;52.174;5.456;2023-02-24T00:32:03;101499.47;;;2.39;100.00
42111;BME280;27766;52.174;5.456;2023-02-24T00:34:35;101496.59;;;2.48;100.00
42111;BME280;27766;52.174;5.456;2023-02-24T00:37:04;101499.53;;;2.54;100.00
42111;BME280;27766;52.174;5.456;2023-02-24T00:39:35;101492.47;;;2.50;100.00
42111;BME280;27766;52.174;5.456;2023-02-24T00:42:04;101499.25;;;2.49;100.00
42111;BME280;27766;52.174;5.456;2023-02-24T00:44:44;101497.59;;;2.50;100.00
42111;BME280;27766;52.174;5.456;2023-02-24T00:47:13;101492.09;;;2.44;100.00
42111;BME280;27766;52.174;5.456;2023-02-24T00:49:42;101488.47;;;2.40;100.00
42111;BME280;27766;52.174;5.456;2023-02-24T00:52:12;101484.84;;;2.36;100.00
42111;BME280;27766;52.174;5.456;2023-02-24T00:54:40;101468.34;;;2.31;100.00
42111;BME280;27766;52.174;5.456;2023-02-24T00:57:08;101471.00;;;2.19;100.00
42111;BME280;27766;52.174;5.456;2023-02-24T00:59:36;101472.00;;;2.21;100.00
42111;BME280;27766;52.174;5.456;2023-02-24T01:02:04;101471.13;;;2.21;100.00
42111;BME280;27766;52.174;5.456;2023-02-24T01:04:33;101474.34;;;2.18;100.00
42111;BME280;27766;52.174;5.456;2023-02-24T01:07:00;101466.50;;;2.15;100.00
42111;BME280;27766;52.174;5.456;2023-02-24T01:09:30;101462.19;;;2.14;100.00
42111;BME280;27766;52.174;5.456;2023-02-24T01:11:58;101455.91;;;2.09;100.00
42111;BME280;27766;52.174;5.456;2023-02-24T01:14:46;101454.16;;;2.08;100.00
42111;BME280;27766;52.174;5.456;2023-02-24T01:17:15;101437.94;;;2.08;100.00
42111;BME280;27766;52.174;5.456;2023-02-24T01:19:44;101438.63;;;2.05;100.00
42111;BME280;27766;52.174;5.456;2023-02-24T01:22:14;101435.13;;;2.03;100.00
42111;BME280;27766;52.174;5.456;2023-02-24T01:24:42;101422.72;;;1.96;100.00
42111;BME280;27766;52.174;5.456;2023-02-24T01:27:12;101429.03;;;2.01;100.00
42111;BME280;27766;52.174;5.456;2023-02-24T01:29:39;101416.84;;;1.97;100.00
42111;BME280;27766;52.174;5.456;2023-02-24T01:32:10;101414.59;;;1.88;100.00
42111;BME280;27766;52.174;5.456;2023-02-24T01:34:39;101402.63;;;1.87;100.00
42111;BME280;27766;52.174;5.456;2023-02-24T01:37:08;101415.28;;;1.85;100.00
42111;BME280;27766;52.174;5.456;2023-02-24T01:39:35;101398.22;;;1.84;100.00
42111;BME280;27766;52.174;5.456;2023-02-24T01:42:04;101388.31;;;1.76;100.00
42111;BME280;27766;52.174;5.456;2023-02-24T01:46:59;101393.31;;;1.74;100.00
42111;BME280;27766;52.174;5.456;2023-02-24T01:49:46;101366.41;;;1.66;100.00
42111;BME280;27766;52.174;5.456;2023-02-24T01:52:22;101373.50;;;1.70;100.00
42111;BME280;27766;52.174;5.456;2023-02-24T01:55:05;101370.16;;;1.71;100.00
42111;BME280;27766;52.174;5.456;2023-02-24T01:57:36;101366.41;;;1.66;100.00
42111;BME280;27766;52.174;5.456;2023-02-24T02:00:09;101368.19;;;1.67;100.00
42111;BME280;27766;52.174;5.456;2023-02-24T02:02:40;101359.56;;;1.65;100.00
42111;BME280;27766;52.174;5.456;2023-02-24T02:05:09;101353.66;;;1.66;100.00
42111;BME280;27766;52.174;5.456;2023-02-24T02:07:38;101353.19;;;1.58;100.00
42111;BME280;27766;52.174;5.456;2023-02-24T02:10:08;101355.84;;;1.60;100.00
42111;BME280;27766;52.174;5.456;2023-02-24T02:12:37;101350.94;;;1.63;100.00
42111;BME280;27766;52.174;5.456;2023-02-24T02:15:11;101356.03;;;1.63;100.00
42111;BME280;27766;52.174;5.456;2023-02-24T02:23:53;101336.41;;;1.62;100.00
42111;BME280;27766;52.174;5.456;2023-02-24T02:35:46;101316.44;;;1.41;100.00
42111;BME280;27766;52.174;5.456;2023-02-24T02:41:06;101300.81;;;1.36;100.00
42111;BME280;27766;52.174;5.456;2023-02-24T02:43:41;101304.06;;;1.34;100.00
42111;BME280;27766;52.174;5.456;2023-02-24T02:46:41;101303.09;;;1.32;100.00
42111;BME280;27766;52.174;5.456;2023-02-24T02:49:31;101287.00;;;1.19;100.00
42111;BME280;27766;52.174;5.456;2023-02-24T02:52:05;101287.50;;;1.14;100.00
42111;BME280;27766;52.174;5.456;2023-02-24T02:54:49;101283.09;;;1.11;100.00
42111;BME280;27766;52.174;5.456;2023-02-24T02:57:29;101288.19;;;1.11;100.00
42111;BME280;27766;52.174;5.456;2023-02-24T03:00:08;101293.31;;;1.11;100.00
42111;BME280;27766;52.174;5.456;2023-02-24T03:02:43;101289.06;;;1.12;100.00
42111;BME280;27766;52.174;5.456;2023-02-24T03:05:14;101285.66;;;1.11;100.00
42111;BME280;27766;52.174;5.456;2023-02-24T03:07:47;101278.78;;;1.10;100.00
42111;BME280;27766;52.174;5.456;2023-02-24T03:10:24;101272.69;;;1.08;100.00
42111;BME280;27766;52.174;5.456;2023-02-24T03:12:57;101258.19;;;1.07;100.00
42111;BME280;27766;52.174;5.456;2023-02-24T03:15:27;101267.88;;;1.13;100.00
42111;BME280;27766;52.174;5.456;2023-02-24T03:18:07;101263.78;;;1.15;100.00
42111;BME280;27766;52.174;5.456;2023-02-24T03:20:44;101261.22;;;1.15;100.00
42111;BME280;27766;52.174;5.456;2023-02-24T03:23:16;101246.50;;;1.10;100.00
42111;BME280;27766;52.174;5.456;2023-02-24T03:25:56;101252.09;;;1.18;100.00
42111;BME280;27766;52.174;5.456;2023-02-24T03:28:31;101251.28;;;1.19;100.00
42111;BME280;27766;52.174;5.456;2023-02-24T03:31:07;101238.53;;;1.19;100.00
42111;BME280;27766;52.174;5.456;2023-02-24T03:33:44;101242.84;;;1.20;100.00
42111;BME280;27766;52.174;5.456;2023-02-24T03:36:15;101227.38;;;1.17;100.00
42111;BME280;27766;52.174;5.456;2023-02-24T03:38:43;101228.84;;;1.27;100.00
42111;BME280;27766;52.174;5.456;2023-02-24T03:41:10;101230.47;;;1.26;100.00
42111;BME280;27766;52.174;5.456;2023-02-24T03:43:43;101220.91;;;1.22;100.00
42111;BME280;27766;52.174;5.456;2023-02-24T03:46:15;101236.78;;;1.32;100.00
42111;BME280;27766;52.174;5.456;2023-02-24T03:48:49;101238.72;;;1.36;100.00
42111;BME280;27766;52.174;5.456;2023-02-24T03:51:19;101226.06;;;1.37;100.00
42111;BME280;27766;52.174;5.456;2023-02-24T03:53:59;101228.88;;;1.42;100.00
42111;BME280;27766;52.174;5.456;2023-02-24T04:00:03;101221.00;;;1.52;100.00
42111;BME280;27766;52.174;5.456;2023-02-24T04:02:55;101219.44;;;1.54;100.00
42111;BME280;27766;52.174;5.456;2023-02-24T04:05:28;101215.41;;;1.58;100.00
42111;BME280;27766;52.174;5.456;2023-02-24T04:08:05;101219.81;;;1.61;100.00
42111;BME280;27766;52.174;5.456;2023-02-24T04:10:41;101213.13;;;1.63;100.00
42111;BME280;27766;52.174;5.456;2023-02-24T04:13:20;101200.66;;;1.67;100.00
42111;BME280;27766;52.174;5.456;2023-02-24T04:15:56;101202.41;;;1.68;100.00
42111;BME280;27766;52.174;5.456;2023-02-24T04:18:29;101192.22;;;1.68;100.00
42111;BME280;27766;52.174;5.456;2023-02-24T04:20:59;101200.81;;;1.70;100.00
42111;BME280;27766;52.174;5.456;2023-02-24T04:23:31;101195.53;;;1.67;100.00
42111;BME280;27766;52.174;5.456;2023-02-24T04:26:00;101188.69;;;1.66;100.00
42111;BME280;27766;52.174;5.456;2023-02-24T04:28:29;101186.91;;;1.65;100.00
42111;BME280;27766;52.174;5.456;2023-02-24T04:31:00;101169.75;;;1.63;100.00
42111;BME280;27766;52.174;5.456;2023-02-24T04:33:32;101166.06;;;1.72;100.00
42111;BME280;27766;52.174;5.456;2023-02-24T04:35:59;101160.19;;;1.73;100.00
42111;BME280;27766;52.174;5.456;2023-02-24T04:38:26;101147.94;;;1.68;100.00
42111;BME280;27766;52.174;5.456;2023-02-24T04:40:53;101145.38;;;1.68;100.00
42111;BME280;27766;52.174;5.456;2023-02-24T04:43:21;101142.75;;;1.66;100.00
42111;BME280;27766;52.174;5.456;2023-02-24T04:45:48;101138.69;;;1.70;100.00
42111;BME280;27766;52.174;5.456;2023-02-24T04:48:17;101136.31;;;1.73;100.00
42111;BME280;27766;52.174;5.456;2023-02-24T04:50:46;101143.00;;;1.71;100.00
42111;BME280;27766;52.174;5.456;2023-02-24T04:53:18;101141.25;;;1.70;100.00
42111;BME280;27766;52.174;5.456;2023-02-24T04:55:53;101135.09;;;1.66;100.00
42111;BME280;27766;52.174;5.456;2023-02-24T04:58:24;101127.16;;;1.62;100.00
42111;BME280;27766;52.174;5.456;2023-02-24T05:00:54;101133.25;;;1.64;100.00
42111;BME280;27766;52.174;5.456;2023-02-24T05:03:24;101125.59;;;1.64;100.00
42111;BME280;27766;52.174;5.456;2023-02-24T05:05:56;101113.59;;;1.63;100.00
42111;BME280;27766;52.174;5.456;2023-02-24T05:08:28;101123.31;;;1.68;100.00
42111;BME280;27766;52.174;5.456;2023-02-24T05:10:57;101111.22;;;1.66;100.00
42111;BME280;27766;52.174;5.456;2023-02-24T05:13:29;101113.88;;;1.67;100.00
42111;BME280;27766;52.174;5.456;2023-02-24T05:16:03;101106.13;;;1.66;100.00
42111;BME280;27766;52.174;5.456;2023-02-24T05:18:33;101102.19;;;1.71;100.00
42111;BME280;27766;52.174;5.456;2023-02-24T05:21:07;101090.81;;;1.66;100.00
42111;BME280;27766;52.174;5.456;2023-02-24T05:23:59;101070.81;;;1.58;100.00
42111;BME280;27766;52.174;5.456;2023-02-24T05:26:34;101077.97;;;1.64;100.00
42111;BME280;27766;52.174;5.456;2023-02-24T05:29:03;101075.69;;;1.69;100.00
42111;BME280;27766;52.174;5.456;2023-02-24T05:31:31;101074.72;;;1.67;100.00
42111;BME280;27766;52.174;5.456;2023-02-24T05:34:01;101075.50;;;1.66;100.00
42111;BME280;27766;52.174;5.456;2023-02-24T05:36:31;101060.03;;;1.63;100.00
42111;BME280;27766;52.174;5.456;2023-02-24T05:38:59;101064.50;;;1.67;100.00
42111;BME280;27766;52.174;5.456;2023-02-24T05:41:35;101055.19;;;1.67;100.00
42111;BME280;27766;52.174;5.456;2023-02-24T05:44:07;101048.41;;;1.68;100.00
42111;BME280;27766;52.174;5.456;2023-02-24T05:46:40;101053.50;;;1.68;100.00
42111;BME280;27766;52.174;5.456;2023-02-24T05:51:40;101034.84;;;1.69;100.00
42111;BME280;27766;52.174;5.456;2023-02-24T05:54:30;101026.41;;;1.70;100.00
42111;BME280;27766;52.174;5.456;2023-02-24T05:57:09;101018.22;;;1.76;100.00
42111;BME280;27766;52.174;5.456;2023-02-24T05:59:40;101010.13;;;1.68;100.00
42111;BME280;27766;52.174;5.456;2023-02-24T06:02:10;101012.06;;;1.72;100.00
42111;BME280;27766;52.174;5.456;2023-02-24T06:04:41;101000.88;;;1.70;100.00
42111;BME280;27766;52.174;5.456;2023-02-24T06:07:25;101004.50;;;1.73;100.00
42111;BME280;27766;52.174;5.456;2023-02-24T06:09:57;100997.69;;;1.74;100.00
42111;BME280;27766;52.174;5.456;2023-02-24T06:12:32;100992.00;;;1.78;100.00
42111;BME280;27766;52.174;5.456;2023-02-24T06:15:00;100973.06;;;1.74;100.00
42111;BME280;27766;52.174;5.456;2023-02-24T06:17:30;100987.81;;;1.80;100.00
42111;BME280;27766;52.174;5.456;2023-02-24T06:19:57;100986.09;;;1.79;100.00
42111;BME280;27766;52.174;5.456;2023-02-24T06:22:26;100985.53;;;1.85;100.00
42111;BME280;27766;52.174;5.456;2023-02-24T06:24:54;100988.81;;;1.82;100.00
42111;BME280;27766;52.174;5.456;2023-02-24T06:27:22;100983.88;;;1.85;100.00
42111;BME280;27766;52.174;5.456;2023-02-24T06:29:53;100977.97;;;1.86;100.00
42111;BME280;27766;52.174;5.456;2023-02-24T06:32:23;100975.75;;;1.93;100.00
42111;BME280;27766;52.174;5.456;2023-02-24T06:34:52;100967.94;;;1.89;100.00
42111;BME280;27766;52.174;5.456;2023-02-24T06:37:20;100979.38;;;1.96;100.00
42111;BME280;27766;52.174;5.456;2023-02-24T06:39:49;100977.94;;;2.01;100.00
42111;BME280;27766;52.174;5.456;2023-02-24T06:42:16;100953.97;;;1.99;100.00
42111;BME280;27766;52.174;5.456;2023-02-24T06:44:43;100954.88;;;2.00;100.00
42111;BME280;27766;52.174;5.456;2023-02-24T06:47:12;100953.44;;;2.05;100.00
42111;BME280;27766;52.174;5.456;2023-02-24T06:49:40;100939.50;;;1.98;100.00
42111;BME280;27766;52.174;5.456;2023-02-24T06:52:09;100943.34;;;2.07;100.00
42111;BME280;27766;52.174;5.456;2023-02-24T06:54:37;100937.59;;;2.11;100.00
42111;BME280;27766;52.174;5.456;2023-02-24T06:57:04;100940.13;;;2.11;100.00
42111;BME280;27766;52.174;5.456;2023-02-24T06:59:31;100935.91;;;2.11;100.00
42111;BME280;27766;52.174;5.456;2023-02-24T07:01:59;100935.09;;;2.12;100.00
42111;BME280;27766;52.174;5.456;2023-02-24T07:04:29;100941.25;;;2.16;100.00
42111;BME280;27766;52.174;5.456;2023-02-24T07:06:57;100927.41;;;2.27;100.00
42111;BME280;27766;52.174;5.456;2023-02-24T07:09:30;100919.81;;;2.29;100.00
42111;BME280;27766;52.174;5.456;2023-02-24T07:11:57;100914.78;;;2.30;100.00
42111;BME280;27766;52.174;5.456;2023-02-24T07:14:28;100907.59;;;2.23;100.00
42111;BME280;27766;52.174;5.456;2023-02-24T07:16:58;100919.19;;;2.33;100.00
42111;BME280;27766;52.174;5.456;2023-02-24T07:19:29;100913.19;;;2.32;100.00
42111;BME280;27766;52.174;5.456;2023-02-24T07:22:00;100909.13;;;2.36;100.00
42111;BME280;27766;52.174;5.456;2023-02-24T07:24:32;100908.38;;;2.38;100.00
42111;BME280;27766;52.174;5.456;2023-02-24T07:27:05;100910.41;;;2.44;100.00
42111;BME280;27766;52.174;5.456;2023-02-24T07:29:34;100895.13;;;2.46;100.00
42111;BME280;27766;52.174;5.456;2023-02-24T07:32:04;100908.31;;;2.53;100.00
42111;BME280;27766;52.174;5.456;2023-02-24T07:34:32;100901.75;;;2.59;100.00
42111;BME280;27766;52.174;5.456;2023-02-24T07:37:00;100901.03;;;2.61;100.00
42111;BME280;27766;52.174;5.456;2023-02-24T07:39:34;100891.78;;;2.63;100.00
42111;BME280;27766;52.174;5.456;2023-02-24T07:42:03;100883.16;;;2.61;100.00
42111;BME280;27766;52.174;5.456;2023-02-24T07:44:30;100891.22;;;2.69;100.00
42111;BME280;27766;52.174;5.456;2023-02-24T07:46:59;100879.41;;;2.71;100.00
42111;BME280;27766;52.174;5.456;2023-02-24T07:49:26;100875.72;;;2.66;100.00
42111;BME280;27766;52.174;5.456;2023-02-24T07:51:56;100876.97;;;2.74;100.00
42111;BME280;27766;52.174;5.456;2023-02-24T07:54:25;100875.84;;;2.85;100.00
42111;BME280;27766;52.174;5.456;2023-02-24T07:56:57;100877.91;;;2.93;100.00
42111;BME280;27766;52.174;5.456;2023-02-24T07:59:28;100876.16;;;2.92;100.00
42111;BME280;27766;52.174;5.456;2023-02-24T08:01:56;100871.22;;;2.95;100.00
42111;BME280;27766;52.174;5.456;2023-02-24T08:04:27;100870.59;;;3.00;100.00
42111;BME280;27766;52.174;5.456;2023-02-24T08:06:58;100874.84;;;3.00;100.00
42111;BME280;27766;52.174;5.456;2023-02-24T08:09:31;100871.63;;;3.04;100.00
42111;BME280;27766;52.174;5.456;2023-02-24T08:12:15;100852.56;;;2.97;100.00
42111;BME280;27766;52.174;5.456;2023-02-24T08:14:50;100855.66;;;3.08;100.00
42111;BME280;27766;52.174;5.456;2023-02-24T08:17:23;100858.34;;;3.11;100.00
42111;BME280;27766;52.174;5.456;2023-02-24T08:19:54;100849.88;;;3.12;100.00
42111;BME280;27766;52.174;5.456;2023-02-24T08:22:43;100844.69;;;3.11;100.00
42111;BME280;27766;52.174;5.456;2023-02-24T08:25:13;100835.66;;;3.17;100.00
42111;BME280;27766;52.174;5.456;2023-02-24T08:27:52;100831.09;;;3.30;100.00
42111;BME280;27766;52.174;5.456;2023-02-24T08:30:42;100840.81;;;3.37;100.00
42111;BME280;27766;52.174;5.456;2023-02-24T08:33:17;100822.31;;;3.43;100.00
42111;BME280;27766;52.174;5.456;2023-02-24T08:35:50;100823.47;;;3.49;100.00
42111;BME280;27766;52.174;5.456;2023-02-24T08:38:20;100812.53;;;3.52;100.00
42111;BME280;27766;52.174;5.456;2023-02-24T08:40:52;100800.66;;;3.54;100.00
42111;BME280;27766;52.174;5.456;2023-02-24T08:45:59;100807.38;;;3.70;100.00
42111;BME280;27766;52.174;5.456;2023-02-24T08:48:31;100809.03;;;3.70;100.00
42111;BME280;27766;52.174;5.456;2023-02-24T08:51:13;100798.94;;;3.73;100.00
42111;BME280;27766;52.174;5.456;2023-02-24T08:53:43;100801.56;;;3.74;100.00
42111;BME280;27766;52.174;5.456;2023-02-24T08:56:12;100803.31;;;3.75;100.00
42111;BME280;27766;52.174;5.456;2023-02-24T08:58:44;100796.00;;;3.83;100.00
42111;BME280;27766;52.174;5.456;2023-02-24T09:01:33;100790.03;;;3.84;100.00
42111;BME280;27766;52.174;5.456;2023-02-24T09:04:05;100783.53;;;3.91;100.00
42111;BME280;27766;52.174;5.456;2023-02-24T09:06:37;100776.25;;;4.00;100.00
42111;BME280;27766;52.174;5.456;2023-02-24T09:09:05;100763.03;;;3.91;100.00
42111;BME280;27766;52.174;5.456;2023-02-24T09:11:53;100767.47;;;3.95;100.00
42111;BME280;27766;52.174;5.456;2023-02-24T09:14:27;100768.78;;;4.05;100.00
42111;BME280;27766;52.174;5.456;2023-02-24T09:16:57;100754.25;;;4.05;100.00
42111;BME280;27766;52.174;5.456;2023-02-24T09:19:44;100756.63;;;4.20;100.00
42111;BME280;27766;52.174;5.456;2023-02-24T09:22:14;100745.16;;;4.12;100.00
42111;BME280;27766;52.174;5.456;2023-02-24T09:25:14;100747.09;;;4.18;100.00
42111;BME280;27766;52.174;5.456;2023-02-24T09:27:49;100736.59;;;4.11;100.00
42111;BME280;27766;52.174;5.456;2023-02-24T09:30:36;100730.00;;;4.17;100.00
42111;BME280;27766;52.174;5.456;2023-02-24T09:33:10;100721.22;;;4.11;100.00
42111;BME280;27766;52.174;5.456;2023-02-24T09:38:20;100718.00;;;4.16;100.00
42111;BME280;27766;52.174;5.456;2023-02-24T09:44:41;100715.63;;;4.20;100.00
42111;BME280;27766;52.174;5.456;2023-02-24T09:47:16;100705.50;;;4.23;100.00
42111;BME280;27766;52.174;5.456;2023-02-24T09:50:10;100701.06;;;4.19;100.00
42111;BME280;27766;52.174;5.456;2023-02-24T09:53:02;100694.84;;;4.14;100.00
42111;BME280;27766;52.174;5.456;2023-02-24T09:55:52;100696.59;;;4.15;100.00
42111;BME280;27766;52.174;5.456;2023-02-24T10:09:29;100685.56;;;4.16;100.00
42111;BME280;27766;52.174;5.456;2023-02-24T10:12:21;100679.41;;;4.12;100.00
42111;BME280;27766;52.174;5.456;2023-02-24T10:14:54;100673.63;;;4.17;100.00
42111;BME280;27766;52.174;5.456;2023-02-24T10:17:53;100662.53;;;4.18;100.00
42111;BME280;27766;52.174;5.456;2023-02-24T10:20:24;100667.56;;;4.15;100.00
42111;BME280;27766;52.174;5.456;2023-02-24T10:23:04;100667.63;;;4.16;100.00
42111;BME280;27766;52.174;5.456;2023-02-24T10:25:47;100660.25;;;4.24;100.00
42111;BME280;27766;52.174;5.456;2023-02-24T10:28:45;100650.13;;;4.27;100.00
42111;BME280;27766;52.174;5.456;2023-02-24T10:31:26;100644.25;;;4.30;100.00
42111;BME280;27766;52.174;5.456;2023-02-24T10:34:00;100639.44;;;4.37;100.00
42111;BME280;27766;52.174;5.456;2023-02-24T10:36:32;100641.28;;;4.41;100.00
42111;BME280;27766;52.174;5.456;2023-02-24T10:39:19;100632.94;;;4.46;100.00
42111;BME280;27766;52.174;5.456;2023-02-24T10:41:54;100640.66;;;4.47;100.00
42111;BME280;27766;52.174;5.456;2023-02-24T10:44:26;100626.88;;;4.43;100.00
42111;BME280;27766;52.174;5.456;2023-02-24T10:47:08;100623.72;;;4.51;100.00
42111;BME280;27766;52.174;5.456;2023-02-24T10:49:41;100627.09;;;4.50;100.00
42111;BME280;27766;52.174;5.456;2023-02-24T10:52:12;100613.53;;;4.52;100.00
42111;BME280;27766;52.174;5.456;2023-02-24T10:54:59;100609.84;;;4.67;100.00
42111;BME280;27766;52.174;5.456;2023-02-24T10:58:02;100608.31;;;4.72;100.00
42111;BME280;27766;52.174;5.456;2023-02-24T11:03:27;100605.78;;;4.73;100.00
42111;BME280;27766;52.174;5.456;2023-02-24T11:06:18;100588.16;;;4.81;100.00
42111;BME280;27766;52.174;5.456;2023-02-24T11:08:57;100581.91;;;4.74;100.00
42111;BME280;27766;52.174;5.456;2023-02-24T11:11:46;100588.25;;;4.84;100.00
42111;BME280;27766;52.174;5.456;2023-02-24T11:14:47;100575.50;;;4.86;100.00
42111;BME280;27766;52.174;5.456;2023-02-24T11:17:35;100578.75;;;4.82;100.00
42111;BME280;27766;52.174;5.456;2023-02-24T11:20:04;100581.06;;;4.98;100.00
42111;BME280;27766;52.174;5.456;2023-02-24T11:22:40;100591.34;;;4.98;100.00
42111;BME280;27766;52.174;5.456;2023-02-24T11:25:14;100574.41;;;5.03;100.00
42111;BME280;27766;52.174;5.456;2023-02-24T11:27:45;100573.88;;;5.12;100.00
42111;BME280;27766;52.174;5.456;2023-02-24T11:30:36;100567.34;;;5.20;100.00
42111;BME280;27766;52.174;5.456;2023-02-24T11:33:39;100566.50;;;5.21;100.00
42111;BME280;27766;52.174;5.456;2023-02-24T11:36:44;100566.91;;;5.32;100.00
42111;BME280;27766;52.174;5.456;2023-02-24T11:39:40;100563.47;;;5.33;100.00
42111;BME280;27766;52.174;5.456;2023-02-24T11:42:15;100556.84;;;5.38;100.00
42111;BME280;27766;52.174;5.456;2023-02-24T11:47:42;100556.38;;;5.50;100.00
42111;BME280;27766;52.174;5.456;2023-02-24T11:53:16;100534.97;;;5.50;100.00
42111;BME280;27766;52.174;5.456;2023-02-24T11:55:50;100525.66;;;5.53;100.00
42111;BME280;27766;52.174;5.456;2023-02-24T11:58:25;100528.69;;;5.67;100.00
42111;BME280;27766;52.174;5.456;2023-02-24T12:01:11;100530.44;;;5.68;100.00
42111;BME280;27766;52.174;5.456;2023-02-24T12:09:44;100520.56;;;5.81;100.00
42111;BME280;27766;52.174;5.456;2023-02-24T12:12:34;100519.91;;;5.86;100.00
42111;BME280;27766;52.174;5.456;2023-02-24T12:15:29;100524.28;;;5.91;100.00
42111;BME280;27766;52.174;5.456;2023-02-24T12:18:12;100519.09;;;6.15;100.00
42111;BME280;27766;52.174;5.456;2023-02-24T12:20:49;100508.09;;;6.19;100.00
42111;BME280;27766;52.174;5.456;2023-02-24T12:23:23;100508.38;;;6.28;100.00
42111;BME280;27766;52.174;5.456;2023-02-24T12:26:19;100503.41;;;6.34;100.00
42111;BME280;27766;52.174;5.456;2023-02-24T12:29:08;100507.81;;;6.39;100.00
42111;BME280;27766;52.174;5.456;2023-02-24T12:40:28;100492.00;;;6.86;100.00
42111;BME280;27766;52.174;5.456;2023-02-24T12:43:11;100481.19;;;6.97;100.00
42111;BME280;27766;52.174;5.456;2023-02-24T12:48:41;100469.97;;;6.95;100.00
42111;BME280;27766;52.174;5.456;2023-02-24T12:51:28;100471.13;;;7.07;100.00
42111;BME280;27766;52.174;5.456;2023-02-24T12:54:08;100489.06;;;7.04;100.00
42111;BME280;27766;52.174;5.456;2023-02-24T12:59:21;100480.50;;;7.05;100.00
42111;BME280;27766;52.174;5.456;2023-02-24T13:15:53;100455.84;;;7.13;100.00
42111;BME280;27766;52.174;5.456;2023-02-24T13:21:08;100459.88;;;7.37;100.00
42111;BME280;27766;52.174;5.456;2023-02-24T13:23:36;100449.22;;;7.23;100.00
42111;BME280;27766;52.174;5.456;2023-02-24T13:26:07;100446.63;;;7.21;100.00
42111;BME280;27766;52.174;5.456;2023-02-24T13:28:35;100423.47;;;7.21;100.00
42111;BME280;27766;52.174;5.456;2023-02-24T13:31:09;100443.22;;;7.22;100.00
42111;BME280;27766;52.174;5.456;2023-02-24T13:33:40;100446.22;;;7.06;100.00
42111;BME280;27766;52.174;5.456;2023-02-24T13:36:15;100444.50;;;7.06;100.00
42111;BME280;27766;52.174;5.456;2023-02-24T13:38:45;100440.66;;;6.89;100.00
42111;BME280;27766;52.174;5.456;2023-02-24T13:43:58;100460.00;;;6.45;100.00
42111;BME280;27766;52.174;5.456;2023-02-24T13:46:59;100475.78;;;6.27;100.00
42111;BME280;27766;52.174;5.456;2023-02-24T13:55:19;100439.91;;;6.30;100.00
42111;BME280;27766;52.174;5.456;2023-02-24T13:57:57;100459.00;;;6.39;100.00
42111;BME280;27766;52.174;5.456;2023-02-24T14:03:11;100434.81;;;6.33;100.00
42111;BME280;27766;52.174;5.456;2023-02-24T14:05:44;100443.75;;;6.46;100.00
42111;BME280;27766;52.174;5.456;2023-02-24T14:08:20;100432.22;;;6.62;100.00
42111;BME280;27766;52.174;5.456;2023-02-24T14:10:54;100436.94;;;6.79;100.00
42111;BME280;27766;52.174;5.456;2023-02-24T14:13:23;100434.66;;;6.90;100.00
42111;BME280;27766;52.174;5.456;2023-02-24T14:15:54;100440.28;;;6.75;100.00
42111;BME280;27766;52.174;5.456;2023-02-24T14:18:27;100450.13;;;6.59;100.00
42111;BME280;27766;52.174;5.456;2023-02-24T14:20:56;100448.78;;;6.42;100.00
42111;BME280;27766;52.174;5.456;2023-02-24T14:23:28;100436.28;;;6.25;100.00
42111;BME280;27766;52.174;5.456;2023-02-24T14:25:58;100443.03;;;6.22;100.00
42111;BME280;27766;52.174;5.456;2023-02-24T14:28:35;100428.28;;;6.14;100.00
42111;BME280;27766;52.174;5.456;2023-02-24T14:31:11;100437.66;;;6.12;100.00
42111;BME280;27766;52.174;5.456;2023-02-24T14:33:41;100433.41;;;6.14;100.00
42111;BME280;27766;52.174;5.456;2023-02-24T14:36:16;100429.25;;;6.18;100.00
42111;BME280;27766;52.174;5.456;2023-02-24T14:38:44;100424.09;;;6.18;100.00
42111;BME280;27766;52.174;5.456;2023-02-24T14:41:22;100430.16;;;6.20;100.00
42111;BME280;27766;52.174;5.456;2023-02-24T14:43:51;100421.66;;;6.23;100.00
42111;BME280;27766;52.174;5.456;2023-02-24T14:46:18;100442.63;;;6.37;100.00
42111;BME280;27766;52.174;5.456;2023-02-24T14:48:54;100430.53;;;6.64;100.00
42111;BME280;27766;52.174;5.456;2023-02-24T14:51:32;100421.63;;;6.84;100.00
42111;BME280;27766;52.174;5.456;2023-02-24T14:54:04;100419.66;;;7.07;100.00
42111;BME280;27766;52.174;5.456;2023-02-24T14:56:34;100416.59;;;7.22;100.00
42111;BME280;27766;52.174;5.456;2023-02-24T14:59:14;100425.22;;;7.22;100.00
42111;BME280;27766;52.174;5.456;2023-02-24T15:01:48;100430.63;;;7.33;100.00
42111;BME280;27766;52.174;5.456;2023-02-24T15:04:37;100428.00;;;7.68;100.00
42111;BME280;27766;52.174;5.456;2023-02-24T15:07:35;100429.38;;;7.90;100.00
42111;BME280;27766;52.174;5.456;2023-02-24T15:10:05;100411.59;;;8.03;100.00
42111;BME280;27766;52.174;5.456;2023-02-24T15:12:35;100417.81;;;7.73;100.00